TTPP 151600Z 12008KT 9999 SCT022 29/21 Q1013 NOSIG

TAPA 151600Z 09009KT 050V130 9999 FEW020 28/21 Q1016 NOSIG

TVSC 021200Z 06015KT 9999 SCT016 25/19 Q1016 NOSIG

TFFF 151630Z AUTO 11015KT 070V130 9999 FEW026 SCT042 29/23 Q1014 TEMPO 09015G25KT

TLPL 151600Z 06012KT 6000 -SHRA BKN023 SCT042 26/24 Q1014 NOSIG

TBPB 151600Z 12018KT 9999 4000SW SHRA VCSH BKN016 25/23 Q1014 NOSIG

TDPD 151600Z 13007KT 9999 4000W VCSH BKN014 26/24 Q1016

TGPY 151600Z 10010KT 9999 SCT020 29/23 Q1013 NOSIG

TKPN 151600Z 09011KT 9999 FEW018 28/23 Q1016

TLPC 151600Z 09008KT 9999 BKN023 29/23 Q1014 TEMPO SHRA

TTCP 151600Z 13012KT 9999 FEW018 30/24 Q1013 NOSIG

TVSV 132043Z 12005G18KT 4000 SHRA BKN014 27/23 Q1010

TFFR 151630Z AUTO 11010KT 060V140 9999 BKN026 BKN034 BKN045 28/22 Q1015 NOSIG